createdAt,value
2019-05-26T00:01:28.381Z,23.95
2019-05-26T00:03:56.856Z,26.80
2019-05-26T00:06:27.473Z,26.30
2019-05-26T00:08:55.656Z,22.95
2019-05-26T00:11:24.116Z,22.58
2019-05-26T00:13:52.963Z,22.82
2019-05-26T00:16:21.518Z,21.25
2019-05-26T00:18:50.029Z,21.37
2019-05-26T00:21:18.586Z,21.25
2019-05-26T00:23:47.060Z,23.18
2019-05-26T00:26:15.586Z,20.30
2019-05-26T00:28:44.174Z,22.17
2019-05-26T00:31:12.734Z,19.75
2019-05-26T00:33:41.210Z,21.50
2019-05-26T00:36:09.731Z,19.30
2019-05-26T00:38:38.226Z,24.15
2019-05-26T00:41:06.771Z,22.30
2019-05-26T00:43:35.786Z,25.35
2019-05-26T00:46:06.410Z,23.75
2019-05-26T00:48:35.284Z,22.00
2019-05-26T00:51:04.154Z,25.85
2019-05-26T00:53:32.740Z,24.35
2019-05-26T00:56:01.211Z,24.18
2019-05-26T00:58:29.747Z,26.02
2019-05-26T01:01:00.782Z,24.75
2019-05-26T01:03:28.515Z,26.90
2019-05-26T01:05:57.017Z,27.85
2019-05-26T01:08:25.562Z,29.75
2019-05-26T01:10:54.044Z,28.20
2019-05-26T01:13:22.617Z,28.20
2019-05-26T01:15:51.120Z,27.95
2019-05-26T01:18:19.654Z,26.00
2019-05-26T01:20:48.139Z,29.12
2019-05-26T01:23:16.627Z,24.98
2019-05-26T01:25:45.119Z,25.75
2019-05-26T01:28:13.699Z,24.87
2019-05-26T01:30:42.206Z,25.70
2019-05-26T01:33:10.661Z,24.52
2019-05-26T01:35:40.795Z,24.60
2019-05-26T01:38:23.268Z,29.40
2019-05-26T01:40:44.213Z,29.07
2019-05-26T01:43:14.128Z,28.50
2019-05-26T01:45:42.697Z,29.98
2019-05-26T01:48:11.276Z,24.92
2019-05-26T01:50:40.094Z,30.65
2019-05-26T01:53:08.693Z,30.05
2019-05-26T01:55:37.324Z,32.98
2019-05-26T01:58:05.960Z,32.93
2019-05-26T02:00:34.594Z,28.42
2019-05-26T02:03:03.317Z,34.58
2019-05-26T02:05:31.957Z,31.40
2019-05-26T02:08:00.480Z,33.48
2019-05-26T02:10:29.207Z,32.75
2019-05-26T02:12:57.841Z,29.45
2019-05-26T02:15:26.929Z,29.92
2019-05-26T02:17:55.736Z,33.08
2019-05-26T02:20:24.711Z,33.42
2019-05-26T02:22:53.662Z,32.05
2019-05-26T02:25:22.392Z,31.30
2019-05-26T02:27:50.948Z,37.33
2019-05-26T02:30:19.757Z,36.28
2019-05-26T02:32:48.376Z,34.53
2019-05-26T02:35:18.131Z,36.83
2019-05-26T02:37:46.761Z,32.75
2019-05-26T02:40:16.384Z,34.80
2019-05-26T02:42:47.518Z,35.10
2019-05-26T02:45:18.277Z,34.43
2019-05-26T02:47:46.941Z,30.92
2019-05-26T02:50:16.472Z,37.65
2019-05-26T02:52:45.228Z,32.88
2019-05-26T02:55:15.393Z,32.33
2019-05-26T02:57:43.954Z,33.73
2019-05-26T03:00:14.149Z,28.55
2019-05-26T03:02:42.769Z,32.38
2019-05-26T03:05:13.590Z,42.20
2019-05-26T03:07:43.671Z,34.18
2019-05-26T03:10:15.291Z,37.48
2019-05-26T03:12:44.325Z,32.85
2019-05-26T03:15:14.676Z,35.30
2019-05-26T03:17:43.328Z,32.60
2019-05-26T03:20:14.862Z,32.10
2019-05-26T03:22:43.536Z,36.08
2019-05-26T03:25:14.203Z,36.45
2019-05-26T03:27:42.836Z,38.48
2019-05-26T03:30:11.844Z,36.40
2019-05-26T03:32:40.480Z,35.45
2019-05-26T03:35:10.187Z,37.53
2019-05-26T03:37:38.842Z,35.95
2019-05-26T03:40:08.534Z,37.15
2019-05-26T03:42:37.175Z,37.03
2019-05-26T03:45:07.584Z,41.42
2019-05-26T03:47:36.244Z,38.63
2019-05-26T03:50:08.447Z,32.70
2019-05-26T03:52:37.441Z,41.92
2019-05-26T03:55:07.532Z,45.78
2019-05-26T03:57:36.070Z,44.10
2019-05-26T04:00:06.706Z,42.27
2019-05-26T04:02:37.548Z,44.20
2019-05-26T04:05:09.093Z,45.75
2019-05-26T04:07:37.599Z,46.48
2019-05-26T04:10:08.010Z,40.92
2019-05-26T04:12:36.564Z,44.58
2019-05-26T04:15:06.734Z,44.90
2019-05-26T04:17:35.336Z,38.25
2019-05-26T04:20:05.098Z,39.48
2019-05-26T04:22:33.640Z,43.38
2019-05-26T04:25:02.257Z,45.12
2019-05-26T04:27:30.758Z,38.88
2019-05-26T04:29:59.282Z,36.98
2019-05-26T04:32:27.757Z,41.75
2019-05-26T04:34:56.570Z,42.98
2019-05-26T04:37:25.033Z,39.65
2019-05-26T04:39:53.504Z,40.65
2019-05-26T04:42:22.139Z,42.93
2019-05-26T04:44:50.705Z,40.98
2019-05-26T04:47:19.447Z,43.25
2019-05-26T04:49:47.984Z,43.00
2019-05-26T04:52:16.824Z,48.50
2019-05-26T04:54:45.311Z,43.28
2019-05-26T04:57:13.845Z,41.88
2019-05-26T04:59:44.906Z,48.70
2019-05-26T05:02:13.510Z,47.05
2019-05-26T05:04:41.967Z,56.20
2019-05-26T05:07:10.455Z,51.33
2019-05-26T05:09:38.963Z,51.90
2019-05-26T05:12:07.831Z,48.63
2019-05-26T05:14:36.303Z,51.68
2019-05-26T05:17:05.210Z,52.88
2019-05-26T05:19:35.578Z,52.35
2019-05-26T05:22:04.449Z,48.73
2019-05-26T05:24:32.956Z,52.53
2019-05-26T05:27:01.495Z,45.55
2019-05-26T05:29:30.093Z,48.95
2019-05-26T05:31:59.050Z,50.88
2019-05-26T05:34:27.610Z,46.92
2019-05-26T05:36:56.215Z,47.13
2019-05-26T05:39:24.952Z,48.25
2019-05-26T05:41:53.771Z,49.58
2019-05-26T05:44:24.551Z,46.77
2019-05-26T05:46:53.096Z,50.30
2019-05-26T05:49:21.999Z,53.75
2019-05-26T05:51:50.532Z,55.12
2019-05-26T05:54:19.362Z,49.93
2019-05-26T05:56:47.912Z,52.78
2019-05-26T05:59:16.449Z,52.80
2019-05-26T06:01:44.980Z,47.48
2019-05-26T06:04:13.477Z,54.38
2019-05-26T06:06:42.428Z,50.45
2019-05-26T06:09:13.967Z,54.98
2019-05-26T06:11:42.503Z,58.92
2019-05-26T06:14:10.957Z,51.92
2019-05-26T06:16:39.725Z,58.38
2019-05-26T06:19:08.190Z,59.27
2019-05-26T06:21:45.164Z,57.17
2019-05-26T06:24:13.738Z,54.90
2019-05-26T06:26:42.614Z,61.00
2019-05-26T06:29:11.146Z,59.48
2019-05-26T06:31:39.716Z,59.70
2019-05-26T06:34:08.261Z,60.40
2019-05-26T06:36:36.730Z,60.05
2019-05-26T06:39:07.407Z,63.65
2019-05-26T06:41:36.111Z,58.42
2019-05-26T06:44:04.908Z,60.70
2019-05-26T06:46:33.472Z,61.20
2019-05-26T06:49:02.020Z,63.33
2019-05-26T06:51:30.552Z,63.60
2019-05-26T06:53:59.073Z,61.18
2019-05-26T06:56:27.619Z,59.48
2019-05-26T06:58:56.212Z,62.08
2019-05-26T07:01:24.797Z,53.60
2019-05-26T07:03:53.321Z,59.38
2019-05-26T07:06:21.918Z,52.93
2019-05-26T07:08:52.021Z,55.43
2019-05-26T07:11:22.103Z,57.43
2019-05-26T07:13:52.179Z,54.73
2019-05-26T07:16:36.738Z,52.27
2019-05-26T07:18:51.155Z,48.02
2019-05-26T07:21:28.351Z,49.20
2019-05-26T07:23:57.175Z,42.90
2019-05-26T07:26:31.954Z,49.90
2019-05-26T07:29:00.253Z,43.85
2019-05-26T07:31:48.251Z,47.05
2019-05-26T07:34:04.665Z,46.92
2019-05-26T07:36:33.355Z,41.55
2019-05-26T07:39:01.915Z,44.45
2019-05-26T07:41:30.514Z,44.55
2019-05-26T07:43:58.983Z,41.68
2019-05-26T07:46:27.580Z,42.45
2019-05-26T07:48:57.412Z,39.50
2019-05-26T07:51:26.030Z,41.90
2019-05-26T07:53:56.266Z,38.15
2019-05-26T07:56:25.011Z,35.30
2019-05-26T07:58:53.667Z,36.40
2019-05-26T08:01:24.428Z,33.18
2019-05-26T08:03:52.765Z,33.02
2019-05-26T08:06:21.451Z,34.15
2019-05-26T08:08:50.263Z,31.17
2019-05-26T08:11:20.449Z,35.40
2019-05-26T08:13:49.019Z,29.35
2019-05-26T08:16:17.851Z,27.15
2019-05-26T08:18:46.594Z,27.05
2019-05-26T08:21:15.305Z,25.12
2019-05-26T08:23:45.468Z,24.77
2019-05-26T08:26:15.581Z,26.02
2019-05-26T08:28:44.224Z,27.25
2019-05-26T08:31:15.087Z,24.43
2019-05-26T08:33:43.680Z,24.70
2019-05-26T08:36:13.971Z,21.93
2019-05-26T08:38:42.561Z,26.10
2019-05-26T08:41:11.194Z,23.12
2019-05-26T08:43:39.787Z,24.85
2019-05-26T08:46:08.487Z,23.12
2019-05-26T08:48:37.132Z,24.47
2019-05-26T08:51:14.614Z,22.58
2019-05-26T08:53:43.234Z,26.85
2019-05-26T08:56:12.132Z,24.18
2019-05-26T08:58:40.846Z,27.95
2019-05-26T09:01:09.652Z,26.75
2019-05-26T09:03:39.729Z,25.02
2019-05-26T09:06:08.224Z,23.30
2019-05-26T09:08:36.764Z,23.62
2019-05-26T09:11:05.395Z,20.55
2019-05-26T09:13:33.942Z,23.52
2019-05-26T09:16:02.626Z,20.00
2019-05-26T09:18:31.630Z,18.80
2019-05-26T09:21:06.407Z,18.55
2019-05-26T09:23:32.275Z,17.07
2019-05-26T09:26:00.973Z,19.48
2019-05-26T09:28:29.638Z,21.97
2019-05-26T09:30:58.366Z,18.70
2019-05-26T09:33:27.026Z,17.30
2019-05-26T09:35:55.618Z,16.62
2019-05-26T09:38:24.222Z,18.48
2019-05-26T09:40:53.327Z,18.77
2019-05-26T09:43:23.619Z,16.75
2019-05-26T09:45:52.511Z,14.55
2019-05-26T09:48:21.102Z,15.05
2019-05-26T09:50:49.677Z,13.38
2019-05-26T09:53:18.180Z,16.05
2019-05-26T09:55:46.687Z,13.70
2019-05-26T09:58:15.187Z,16.27
2019-05-26T10:00:44.344Z,13.43
2019-05-26T10:03:13.765Z,11.05
2019-05-26T10:05:42.721Z,13.10
2019-05-26T10:08:12.613Z,12.35
2019-05-26T10:10:41.195Z,12.07
2019-05-26T10:13:09.794Z,9.25
2019-05-26T10:15:38.389Z,10.00
2019-05-26T10:18:07.043Z,11.18
2019-05-26T10:20:35.575Z,10.72
2019-05-26T10:23:04.108Z,13.53
2019-05-26T10:25:32.641Z,9.60
2019-05-26T10:28:01.223Z,11.05
2019-05-26T10:30:29.752Z,10.68
2019-05-26T10:32:58.593Z,12.37
2019-05-26T10:35:28.735Z,11.43
2019-05-26T10:37:59.271Z,11.57
2019-05-26T10:40:29.322Z,10.98
2019-05-26T10:42:57.894Z,10.23
2019-05-26T10:45:26.457Z,13.53
2019-05-26T10:47:55.273Z,11.33
2019-05-26T10:50:25.480Z,13.08
2019-05-26T10:52:56.184Z,13.45
2019-05-26T10:55:25.065Z,11.08
2019-05-26T10:57:53.876Z,12.75
2019-05-26T11:00:22.576Z,11.73
2019-05-26T11:02:51.084Z,13.38
2019-05-26T11:05:19.552Z,13.20
2019-05-26T11:07:48.064Z,13.98
2019-05-26T11:10:17.373Z,10.43
2019-05-26T11:12:45.892Z,9.88
2019-05-26T11:15:14.898Z,11.18
2019-05-26T11:17:43.452Z,12.53
2019-05-26T11:20:12.550Z,12.88
2019-05-26T11:22:41.202Z,10.40
2019-05-26T11:25:11.366Z,11.70
2019-05-26T11:27:39.913Z,10.70
2019-05-26T11:30:14.092Z,11.65
2019-05-26T11:32:42.641Z,11.90
2019-05-26T11:35:11.621Z,10.53
2019-05-26T11:37:40.129Z,10.58
2019-05-26T11:40:10.743Z,10.90
2019-05-26T11:42:39.253Z,11.10
2019-05-26T11:45:09.314Z,13.55
2019-05-26T11:47:37.792Z,11.03
2019-05-26T11:50:08.287Z,12.82
2019-05-26T11:52:36.792Z,15.93
2019-05-26T11:55:08.468Z,10.78
2019-05-26T11:57:37.737Z,12.93
2019-05-26T12:00:09.519Z,11.78
2019-05-26T12:02:38.765Z,10.43
2019-05-26T12:05:10.287Z,12.07
2019-05-26T12:07:38.885Z,13.00
2019-05-26T12:10:14.086Z,13.68
2019-05-26T12:12:42.995Z,11.60
2019-05-26T12:15:12.481Z,11.95
2019-05-26T12:17:44.244Z,10.72
2019-05-26T12:20:13.259Z,12.50
2019-05-26T12:22:41.812Z,11.90
2019-05-26T12:25:10.787Z,8.63
2019-05-26T12:27:39.770Z,11.50
2019-05-26T12:30:09.724Z,10.43
2019-05-26T12:32:38.381Z,10.18
2019-05-26T12:35:08.597Z,11.80
2019-05-26T12:37:37.141Z,11.50
2019-05-26T12:40:09.595Z,9.68
2019-05-26T12:42:38.224Z,10.95
2019-05-26T12:45:08.057Z,12.73
2019-05-26T12:47:36.880Z,10.88
2019-05-26T12:50:07.279Z,11.65
2019-05-26T12:52:35.924Z,10.45
2019-05-26T12:55:09.682Z,11.63
2019-05-26T12:57:38.562Z,11.03
2019-05-26T13:00:08.538Z,11.63
2019-05-26T13:02:37.090Z,10.32
2019-05-26T13:05:07.455Z,9.88
2019-05-26T13:07:36.182Z,10.90
2019-05-26T13:10:06.762Z,10.63
2019-05-26T13:12:35.335Z,10.98
2019-05-26T13:15:07.592Z,14.10
2019-05-26T13:17:36.111Z,10.63
2019-05-26T13:20:07.663Z,13.60
2019-05-26T13:22:36.403Z,9.88
2019-05-26T13:25:06.926Z,11.22
2019-05-26T13:27:35.522Z,11.08
2019-05-26T13:30:08.561Z,12.37
2019-05-26T13:32:37.097Z,13.22
2019-05-26T13:35:07.409Z,11.10
2019-05-26T13:37:35.914Z,11.00
2019-05-26T13:40:08.639Z,12.65
2019-05-26T13:42:37.366Z,10.23
2019-05-26T13:45:21.125Z,12.73
2019-05-26T13:47:38.279Z,13.10
2019-05-26T13:50:08.379Z,12.70
2019-05-26T13:52:36.964Z,11.70
2019-05-26T13:55:08.612Z,12.85
2019-05-26T13:57:37.405Z,10.80
2019-05-26T14:00:11.610Z,11.83
2019-05-26T14:02:42.057Z,11.53
2019-05-26T14:05:10.881Z,9.98
2019-05-26T14:07:39.494Z,11.75
2019-05-26T14:10:11.742Z,12.73
2019-05-26T14:12:43.042Z,11.03
2019-05-26T14:15:13.299Z,13.40
2019-05-26T14:17:42.712Z,14.03
2019-05-26T14:20:15.420Z,11.65
2019-05-26T14:22:44.285Z,11.00
2019-05-26T14:25:15.593Z,9.78
2019-05-26T14:27:43.436Z,10.90
2019-05-26T14:30:12.073Z,10.60
2019-05-26T14:32:43.549Z,8.65
2019-05-26T14:35:12.149Z,8.33
2019-05-26T14:37:40.708Z,7.00
2019-05-26T14:40:14.252Z,6.33
2019-05-26T14:42:42.507Z,8.75
2019-05-26T14:45:11.538Z,8.58
2019-05-26T14:47:40.082Z,7.92
2019-05-26T14:50:10.408Z,7.78
2019-05-26T14:52:39.228Z,6.78
2019-05-26T14:55:08.041Z,8.73
2019-05-26T14:57:36.659Z,6.60
2019-05-26T15:00:11.056Z,6.92
2019-05-26T15:02:39.725Z,7.37
2019-05-26T15:05:08.515Z,7.25
2019-05-26T15:07:40.532Z,6.05
2019-05-26T15:10:09.587Z,6.35
2019-05-26T15:12:41.303Z,6.67
2019-05-26T15:15:12.208Z,6.53
2019-05-26T15:17:42.284Z,8.83
2019-05-26T15:20:14.693Z,6.55
2019-05-26T15:22:44.613Z,6.12
2019-05-26T15:25:13.238Z,4.90
2019-05-26T15:27:41.809Z,7.45
2019-05-26T15:30:15.190Z,5.87
2019-05-26T15:32:43.688Z,6.95
2019-05-26T15:35:13.078Z,5.12
2019-05-26T15:37:41.822Z,6.95
2019-05-26T15:40:10.808Z,6.35
2019-05-26T15:42:39.277Z,6.05
2019-05-26T15:45:08.483Z,9.10
2019-05-26T15:47:37.005Z,7.47
2019-05-26T15:50:08.483Z,9.23
2019-05-26T15:52:37.028Z,6.50
2019-05-26T15:55:06.032Z,6.12
2019-05-26T15:57:34.572Z,6.35
2019-05-26T16:00:05.172Z,5.47
2019-05-26T16:02:33.685Z,5.60
2019-05-26T16:05:04.894Z,6.10
2019-05-26T16:07:34.926Z,4.25
2019-05-26T16:10:05.338Z,5.28
2019-05-26T16:12:33.846Z,4.90
2019-05-26T16:15:05.939Z,4.95
2019-05-26T16:17:34.232Z,6.25
2019-05-26T16:20:03.426Z,5.53
2019-05-26T16:22:32.082Z,2.85
2019-05-26T16:25:01.159Z,7.87
2019-05-26T16:27:29.881Z,5.40
2019-05-26T16:29:58.442Z,3.50
2019-05-26T16:32:27.206Z,3.87
2019-05-26T16:34:55.807Z,4.40
2019-05-26T16:37:24.454Z,2.50
2019-05-26T16:39:55.944Z,2.87
2019-05-26T16:42:23.603Z,3.92
2019-05-26T16:44:54.502Z,2.22
2019-05-26T16:47:27.793Z,4.05
2019-05-26T16:49:59.727Z,2.75
2019-05-26T16:52:28.502Z,4.10
2019-05-26T16:54:58.253Z,3.65
2019-05-26T16:57:26.871Z,3.12
2019-05-26T16:59:58.977Z,5.92
2019-05-26T17:02:27.348Z,3.10
2019-05-26T17:04:56.154Z,2.87
2019-05-26T17:07:24.797Z,3.17
2019-05-26T17:09:53.363Z,3.22
2019-05-26T17:12:21.963Z,2.60
2019-05-26T17:14:50.624Z,3.02
2019-05-26T17:17:19.274Z,5.25
2019-05-26T17:19:47.808Z,3.75
2019-05-26T17:22:16.304Z,3.37
2019-05-26T17:24:45.160Z,7.05
2019-05-26T17:27:13.697Z,4.00
2019-05-26T17:29:43.973Z,8.50
2019-05-26T17:32:12.605Z,3.58
2019-05-26T17:34:41.136Z,4.20
2019-05-26T17:37:09.825Z,5.78
2019-05-26T17:39:38.425Z,4.45
2019-05-26T17:42:07.174Z,8.28
2019-05-26T17:44:35.707Z,15.25
2019-05-26T17:47:04.433Z,6.90
2019-05-26T17:49:32.943Z,7.60
2019-05-26T17:52:01.499Z,5.72
2019-05-26T17:54:29.990Z,7.67
2019-05-26T17:56:58.457Z,5.25
2019-05-26T17:59:27.214Z,4.20
2019-05-26T18:01:55.794Z,9.53
2019-05-26T18:04:27.014Z,7.08
2019-05-26T18:06:55.758Z,8.05
2019-05-26T18:09:24.520Z,5.65
2019-05-26T18:11:53.083Z,5.58
2019-05-26T18:14:21.800Z,5.83
2019-05-26T18:16:50.314Z,5.03
2019-05-26T18:19:18.791Z,4.25
2019-05-26T18:21:47.239Z,5.65
2019-05-26T18:24:15.695Z,5.83
2019-05-26T18:26:46.669Z,4.92
2019-05-26T18:29:15.144Z,3.75
2019-05-26T18:31:44.318Z,3.70
2019-05-26T18:34:15.172Z,5.03
2019-05-26T18:36:43.418Z,5.22
2019-05-26T18:39:11.985Z,5.83
2019-05-26T18:41:40.470Z,6.17
2019-05-26T18:44:09.270Z,6.80
2019-05-26T18:46:37.735Z,3.62
2019-05-26T18:49:06.266Z,5.25
2019-05-26T18:51:34.865Z,3.60
2019-05-26T18:54:03.390Z,6.10
2019-05-26T18:56:31.916Z,5.62
2019-05-26T18:59:00.415Z,6.75
2019-05-26T19:01:29.222Z,5.78
2019-05-26T19:03:58.096Z,6.70
2019-05-26T19:06:26.550Z,6.25
2019-05-26T19:08:55.029Z,5.45
2019-05-26T19:11:26.234Z,5.95
2019-05-26T19:13:54.050Z,6.15
2019-05-26T19:16:22.617Z,7.83
2019-05-26T19:18:51.134Z,8.00
2019-05-26T19:21:19.649Z,10.65
2019-05-26T19:23:48.200Z,9.80
2019-05-26T19:26:16.738Z,7.92
2019-05-26T19:28:45.216Z,9.43
2019-05-26T19:31:13.772Z,8.90
2019-05-26T19:33:42.317Z,10.32
2019-05-26T19:36:12.509Z,11.33
2019-05-26T19:38:41.015Z,11.25
2019-05-26T19:41:09.771Z,11.35
2019-05-26T19:43:38.266Z,9.40
2019-05-26T19:46:07.162Z,9.95
2019-05-26T19:48:37.323Z,10.25
2019-05-26T19:51:07.011Z,10.58
2019-05-26T19:53:35.605Z,11.22
2019-05-26T19:56:04.243Z,9.90
2019-05-26T19:58:32.799Z,9.73
2019-05-26T20:01:01.849Z,11.25
2019-05-26T20:03:30.410Z,14.05
2019-05-26T20:05:59.076Z,15.78
2019-05-26T20:08:27.633Z,12.63
2019-05-26T20:10:56.239Z,12.60
2019-05-26T20:13:24.705Z,11.88
2019-05-26T20:15:53.277Z,8.93
2019-05-26T20:18:21.855Z,8.20
2019-05-26T20:20:52.435Z,7.17
2019-05-26T20:23:23.272Z,6.70
2019-05-26T20:25:51.850Z,6.72
2019-05-26T20:28:20.417Z,7.12
2019-05-26T20:30:48.994Z,7.85
2019-05-26T20:33:17.687Z,7.33
2019-05-26T20:35:50.774Z,8.88
2019-05-26T20:38:16.781Z,8.33
2019-05-26T20:40:45.679Z,11.38
2019-05-26T20:43:14.609Z,11.90
2019-05-26T20:45:43.090Z,12.98
2019-05-26T20:48:11.683Z,12.80
2019-05-26T20:50:40.211Z,11.70
2019-05-26T20:53:08.751Z,13.40
2019-05-26T20:55:37.310Z,14.60
2019-05-26T20:58:06.029Z,14.40
2019-05-26T21:00:34.571Z,14.10
2019-05-26T21:03:03.114Z,14.33
2019-05-26T21:05:31.745Z,13.95
2019-05-26T21:08:00.227Z,12.55
2019-05-26T21:10:28.683Z,13.90
2019-05-26T21:12:58.740Z,14.10
2019-05-26T21:15:27.268Z,13.00
2019-05-26T21:17:55.847Z,13.58
2019-05-26T21:20:24.418Z,12.98
2019-05-26T21:22:52.973Z,12.40
2019-05-26T21:25:21.541Z,10.72
2019-05-26T21:27:50.113Z,11.68
2019-05-26T21:30:19.048Z,12.73
2019-05-26T21:32:47.802Z,10.32
2019-05-26T21:35:16.560Z,9.80
2019-05-26T21:37:45.099Z,9.18
2019-05-26T21:40:14.922Z,10.82
2019-05-26T21:42:43.844Z,9.20
2019-05-26T21:45:14.643Z,12.75
2019-05-26T21:47:43.176Z,11.40
2019-05-26T21:50:12.003Z,10.10
2019-05-26T21:52:42.172Z,11.15
2019-05-26T21:55:13.038Z,10.58
2019-05-26T21:57:42.026Z,11.12
2019-05-26T22:00:15.771Z,11.95
2019-05-26T22:02:43.585Z,10.20
2019-05-26T22:05:12.371Z,9.68
2019-05-26T22:07:41.799Z,10.55
2019-05-26T22:10:10.544Z,12.35
2019-05-26T22:12:40.634Z,10.93
2019-05-26T22:15:09.643Z,11.08
2019-05-26T22:17:38.203Z,11.85
2019-05-26T22:20:07.631Z,12.75
2019-05-26T22:22:36.666Z,9.73
2019-05-26T22:25:06.750Z,11.55
2019-05-26T22:27:40.866Z,12.78
2019-05-26T22:30:10.239Z,12.00
2019-05-26T22:32:38.864Z,12.28
2019-05-26T22:35:09.547Z,13.25
2019-05-26T22:37:38.147Z,11.55
2019-05-26T22:40:07.758Z,9.58
2019-05-26T22:42:36.368Z,14.38
2019-05-26T22:45:08.022Z,11.68
2019-05-26T22:47:36.648Z,13.22
2019-05-26T22:50:08.774Z,14.58
2019-05-26T22:52:37.333Z,13.48
2019-05-26T22:55:09.391Z,13.05
2019-05-26T22:57:37.960Z,12.23
2019-05-26T23:00:09.101Z,13.35
2019-05-26T23:02:37.824Z,12.07
2019-05-26T23:05:09.484Z,14.00
2019-05-26T23:07:38.082Z,12.78
2019-05-26T23:10:09.306Z,13.15
2019-05-26T23:12:37.904Z,13.10
2019-05-26T23:15:09.063Z,13.72
2019-05-26T23:17:39.393Z,13.62
2019-05-26T23:20:08.574Z,13.28
2019-05-26T23:22:38.771Z,12.53
2019-05-26T23:25:08.135Z,11.70
2019-05-26T23:27:36.835Z,15.20
2019-05-26T23:30:09.506Z,11.53
2019-05-26T23:32:38.046Z,13.03
2019-05-26T23:35:07.222Z,12.70
2019-05-26T23:37:36.097Z,12.25
2019-05-26T23:40:08.774Z,11.22
2019-05-26T23:42:40.609Z,12.75
2019-05-26T23:45:14.069Z,11.93
2019-05-26T23:47:41.765Z,13.58
2019-05-26T23:50:11.069Z,12.37
2019-05-26T23:52:41.605Z,12.98
2019-05-26T23:55:11.113Z,13.32
2019-05-26T23:57:39.632Z,11.18
